Beverly Municipal Airport Beverly US
ICAO: KBVY
IATA: BVY
Category: Medium
Scheduled Services: No

Elevation: 107 ft
TransAlt. 18000 ft.

Airport Communications:
BOSTON APP/DEP:124.4
ATIS:119.2
CTAF:125.2
GND:121.6
TWR:125.2
UNICOM:122.95

KBVY Zoom In..

Runways:

(A) RW 09 length 4755 ft width 100 ft
LOC 110.50 / hdg 90

(B) RW 16 length 5001 ft width 100 ft
LOC 110.50 / hdg 157

(C) RW 27 length 4755 ft width 100 ft
LOC 110.50 / hdg 270

(D) RW 34 length 5001 ft width 100 ft
LOC 110.50 / hdg 337

Location; KBVY
Day. 10 / Time. 07.53 Zulu
* Altimeter: 29.11
* Temperature: 03° c. 37.4°f.
* Wind from: 260° Speed 10 kn.
Dewpoint: -04° c.
Visibility: 10 Statute Miles.
Clouds: Clear (automated report).

KBVY 100753Z 26010KT 10SM CLR 03/M04 A2911 RMK AO2 SLP852 T00331044


Wind From 260°
Speed 10 kn.

 
 
jpsmedia worldairports.se 2020   terms of use